Aérodrome :
LOGIN :

S'inscrire | Disclaimer

   EN    FR    IT 

 










Légende :    VFR   VFR Marginal   IFR   IFR Intensif   IFR Très Intensif
Visi : 
Plafond : 
>= 8 km
>= 3000ft
5 à 8 km
1000 à 3000 ft
1500m à 5 km
500 à 1000 ft
800 à 1500m
200 à 500 ft
< 800m
< 200 ft
Symboles :   Orages  Brouillard  Fortes neiges  Fortes précipitations  Vent > 20 kt
SIGMETs :   Divers  Orages  Givrage  Turbulence  Onde Orograph.  Cendres Volcan.






- Altitude de l'aérodrome : 11 ft
- Code IATA : MJV


LELC - Murcia San Javier

DERNIER METAR :
  • 271130Z 25007KT 210V290 CAVOK 20/04 Q1022 NOSIG

METARs EXPIRÉS :
  • 271100Z 24006KT 200V290 CAVOK 20/06 Q1022 NOSIG
  • 271030Z 27006KT 200V300 CAVOK 19/05 Q1022 NOSIG
  • 271000Z 30007KT 250V320 CAVOK 18/04 Q1022 NOSIG
  • 270930Z 26008KT CAVOK 18/06 Q1022 NOSIG
  • 270900Z 25005KT 220V280 CAVOK 16/08 Q1022 NOSIG

TAF TAF LELC
Valide du 27 à 12h jusqu'au 28 à 12h UTC


271100Z 2712/2812 23010KT CAVOK TX22/2713Z TN08/2806Z
BECMG 2720/2723 30010KT
BECMG 2804/2806 VRB03KT
BECMG 2810/2812 10010KT



MET'MAP, la Météo Aéronautique d'un coup d'oeil ! - Copyright ORBIFLY Décembre 2007 - Disclaimer

ORBIFLY MET'MAP TEAM :

Programmation & Développement : Alexandra Zaïnal
Sur une idée originale de : Baudouin d'Aumeries
Assistance à la programmation : Marc-Olivier Méhu
Soutien technique & logistique : Manuel Goepfert

Contact : metmap@orbifly.com




SOURCES & CREDITS :

   NOAA